Time;durP1;ratioP1;P1;durP2;ratioP2;P2;SDS_P1;SDS_P2;PMS_P1;PMS_P2;Temp;Humidity;BMP_temperature;BMP_pressure;BME280_temperature;BME280_humidity;BME280_pressure;Samples;Min_cycle;Max_cycle;Signal;HPM_P1;HPM_P2
2023/09/13 00:01:44;;;;;;;10.25;2.10;;;;;;;;;;5065449;28;20427;-58
2023/09/13 00:04:11;;;;;;;9.57;2.20;;;;;;;;;;5067153;28;20044;-58
2023/09/13 00:06:38;;;;;;;12.40;2.25;;;;;;;;;;5067283;28;20392;-58
2023/09/13 00:09:05;;;;;;;11.90;1.90;;;;;;;;;;5061463;28;20116;-58
2023/09/13 00:11:32;;;;;;;8.95;2.30;;;;;;;;;;5066891;28;20491;-58
2023/09/13 00:13:58;;;;;;;11.63;2.35;;;;;;;;;;5066320;28;20060;-58
2023/09/13 00:16:24;;;;;;;9.13;2.03;;;;;;;;;;5062607;28;20079;-58
2023/09/13 00:18:54;;;;;;;17.00;2.75;;;;;;;;;;5068260;28;20138;-58
2023/09/13 00:21:20;;;;;;;11.10;1.95;;;;;;;;;;5071421;28;20040;-58
2023/09/13 00:23:46;;;;;;;11.43;2.13;;;;;;;;;;5070427;28;20040;-58
2023/09/13 00:26:14;;;;;;;15.20;2.25;;;;;;;;;;5063489;28;20108;-58
2023/09/13 00:28:40;;;;;;;17.05;2.63;;;;;;;;;;5062500;28;20564;-58
2023/09/13 00:31:10;;;;;;;10.95;1.92;;;;;;;;;;5059572;28;20064;-58
2023/09/13 00:33:36;;;;;;;12.65;2.67;;;;;;;;;;5062759;28;20522;-58
2023/09/13 00:36:02;;;;;;;14.90;2.67;;;;;;;;;;5059788;28;20081;-58
2023/09/13 00:38:29;;;;;;;6.28;2.10;;;;;;;;;;5059635;28;20037;-58
2023/09/13 00:40:55;;;;;;;13.18;2.38;;;;;;;;;;5062908;28;20079;-58
2023/09/13 00:43:21;;;;;;;14.85;2.15;;;;;;;;;;5061095;28;20044;-58
2023/09/13 00:45:48;;;;;;;12.35;3.00;;;;;;;;;;5060220;28;20039;-58
2023/09/13 00:48:15;;;;;;;14.20;2.88;;;;;;;;;;5060558;28;20414;-58
2023/09/13 00:50:42;;;;;;;10.30;2.30;;;;;;;;;;5060591;28;20662;-59
2023/09/13 00:53:09;;;;;;;9.60;2.45;;;;;;;;;;5060945;28;20036;-58
2023/09/13 00:55:37;;;;;;;6.03;1.80;;;;;;;;;;5061842;28;20043;-58
2023/09/13 00:58:05;;;;;;;16.00;2.50;;;;;;;;;;5060969;28;20434;-58
2023/09/13 01:00:34;;;;;;;9.02;1.85;;;;;;;;;;5062755;28;20056;-58
2023/09/13 01:03:01;;;;;;;7.88;2.13;;;;;;;;;;5061175;28;20032;-58
2023/09/13 01:05:28;;;;;;;6.57;1.75;;;;;;;;;;5062207;28;20450;-58
2023/09/13 01:07:56;;;;;;;5.90;1.83;;;;;;;;;;5062134;28;20040;-58
2023/09/13 01:10:22;;;;;;;9.25;2.05;;;;;;;;;;5061120;28;20152;-58
2023/09/13 01:12:49;;;;;;;10.25;2.22;;;;;;;;;;5060329;28;20174;-58
2023/09/13 01:15:15;;;;;;;7.50;1.65;;;;;;;;;;5061502;28;20120;-58
2023/09/13 01:17:48;;;;;;;9.02;1.67;;;;;;;;;;5061358;28;20529;-58
2023/09/13 01:20:18;;;;;;;9.40;1.83;;;;;;;;;;5064768;28;20044;-58
2023/09/13 01:22:44;;;;;;;11.00;1.73;;;;;;;;;;5063015;28;20504;-58
2023/09/13 01:25:10;;;;;;;6.90;1.60;;;;;;;;;;5069864;28;20109;-58
2023/09/13 01:27:49;;;;;;;10.15;2.40;;;;;;;;;;5068734;28;20056;-58
2023/09/13 01:30:17;;;;;;;8.52;1.73;;;;;;;;;;5093368;28;20040;-58
2023/09/13 01:32:44;;;;;;;11.82;1.65;;;;;;;;;;5065224;28;20049;-58
2023/09/13 01:35:10;;;;;;;8.10;1.70;;;;;;;;;;5059472;28;20131;-58
2023/09/13 01:37:37;;;;;;;5.00;1.50;;;;;;;;;;5059290;28;20144;-58
2023/09/13 01:40:06;;;;;;;8.85;1.35;;;;;;;;;;5066275;28;20044;-58
2023/09/13 01:42:33;;;;;;;4.88;1.38;;;;;;;;;;5067821;28;20056;-58
2023/09/13 01:45:00;;;;;;;5.15;1.25;;;;;;;;;;5068594;28;20041;-58
2023/09/13 01:47:27;;;;;;;9.32;1.80;;;;;;;;;;5068469;28;20139;-58
2023/09/13 01:49:54;;;;;;;10.02;2.60;;;;;;;;;;5067832;28;20052;-58
2023/09/13 01:52:20;;;;;;;4.32;1.02;;;;;;;;;;5068584;28;20398;-58
2023/09/13 01:54:46;;;;;;;5.32;1.48;;;;;;;;;;5067458;28;20044;-58
2023/09/13 01:57:12;;;;;;;5.82;1.40;;;;;;;;;;5070318;28;20428;-58
2023/09/13 01:59:39;;;;;;;7.75;1.63;;;;;;;;;;5068727;28;20032;-58
2023/09/13 02:02:05;;;;;;;5.93;1.50;;;;;;;;;;5063341;28;20060;-58
2023/09/13 02:04:33;;;;;;;8.00;1.33;;;;;;;;;;5067208;28;20125;-58
2023/09/13 02:07:02;;;;;;;5.65;1.58;;;;;;;;;;5069100;28;20036;-58
2023/09/13 02:09:28;;;;;;;9.27;1.80;;;;;;;;;;5066153;28;20052;-58
2023/09/13 02:11:55;;;;;;;10.70;2.05;;;;;;;;;;5062523;28;20041;-58
2023/09/13 02:14:21;;;;;;;7.07;1.35;;;;;;;;;;5069751;28;20460;-58
2023/09/13 02:16:47;;;;;;;8.23;2.20;;;;;;;;;;5062102;28;20433;-58
2023/09/13 02:19:13;;;;;;;11.38;1.60;;;;;;;;;;5064984;28;20041;-58
2023/09/13 02:21:40;;;;;;;8.20;1.67;;;;;;;;;;5067972;28;20123;-58
2023/09/13 02:24:07;;;;;;;7.30;1.83;;;;;;;;;;5057108;28;20041;-58
2023/09/13 02:26:33;;;;;;;8.52;1.83;;;;;;;;;;5066704;28;20446;-58
2023/09/13 02:28:59;;;;;;;7.70;1.63;;;;;;;;;;5062711;28;20029;-58
2023/09/13 02:31:26;;;;;;;8.18;1.90;;;;;;;;;;5063530;28;20531;-58
2023/09/13 02:33:53;;;;;;;8.15;2.00;;;;;;;;;;5058205;28;20130;-58
2023/09/13 02:36:19;;;;;;;9.82;2.67;;;;;;;;;;5059987;28;20551;-58
2023/09/13 02:38:45;;;;;;;7.55;2.30;;;;;;;;;;5058660;28;20147;-58
2023/09/13 02:41:12;;;;;;;8.50;2.30;;;;;;;;;;5062136;28;20060;-58
2023/09/13 02:43:42;;;;;;;9.75;2.15;;;;;;;;;;5064592;28;20051;-58
2023/09/13 02:46:08;;;;;;;11.57;2.65;;;;;;;;;;5063847;28;20049;-58
2023/09/13 02:48:34;;;;;;;12.60;2.83;;;;;;;;;;5066844;28;20060;-58
2023/09/13 02:51:01;;;;;;;10.90;2.00;;;;;;;;;;5069064;28;20448;-58
2023/09/13 02:53:27;;;;;;;12.40;2.75;;;;;;;;;;5065251;28;20060;-58
2023/09/13 02:55:53;;;;;;;9.02;2.25;;;;;;;;;;5064502;28;20450;-58
2023/09/13 02:58:19;;;;;;;10.73;2.17;;;;;;;;;;5063988;28;20067;-58
2023/09/13 03:00:46;;;;;;;11.98;2.10;;;;;;;;;;5065079;28;20044;-58
2023/09/13 03:03:12;;;;;;;13.77;2.17;;;;;;;;;;5063037;28;20432;-58
2023/09/13 03:05:38;;;;;;;13.52;2.55;;;;;;;;;;5061790;28;20048;-58
2023/09/13 03:08:05;;;;;;;10.13;1.73;;;;;;;;;;5062318;28;20067;-58
2023/09/13 03:10:33;;;;;;;12.65;3.63;;;;;;;;;;5070256;28;20111;-58
2023/09/13 03:12:59;;;;;;;10.50;3.08;;;;;;;;;;5065092;28;20112;-58
2023/09/13 03:15:25;;;;;;;10.23;2.75;;;;;;;;;;5072924;28;20037;-58
2023/09/13 03:17:51;;;;;;;12.70;2.47;;;;;;;;;;5072070;28;20040;-58
2023/09/13 03:20:18;;;;;;;11.20;2.00;;;;;;;;;;5070904;28;20036;-58
2023/09/13 03:22:44;;;;;;;15.10;2.88;;;;;;;;;;5072251;28;21988;-58
2023/09/13 03:25:10;;;;;;;13.32;2.60;;;;;;;;;;5073601;28;20025;-58
2023/09/13 03:27:36;;;;;;;10.88;2.55;;;;;;;;;;5072018;28;20040;-59
2023/09/13 03:30:02;;;;;;;13.45;1.92;;;;;;;;;;5072214;28;20052;-58
2023/09/13 03:32:29;;;;;;;14.35;2.35;;;;;;;;;;5072092;28;20078;-58
2023/09/13 03:34:56;;;;;;;13.02;3.13;;;;;;;;;;5072629;28;20383;-58
2023/09/13 03:37:22;;;;;;;18.25;3.42;;;;;;;;;;5072106;28;20144;-58
2023/09/13 03:39:48;;;;;;;16.02;2.83;;;;;;;;;;5071868;28;20072;-58
2023/09/13 03:42:14;;;;;;;8.80;2.10;;;;;;;;;;5069843;28;20037;-58
2023/09/13 03:44:40;;;;;;;11.82;2.30;;;;;;;;;;5062967;28;20032;-58
2023/09/13 03:47:08;;;;;;;13.25;3.05;;;;;;;;;;5070928;28;20056;-59
2023/09/13 03:49:34;;;;;;;9.40;2.20;;;;;;;;;;5067616;28;20368;-58
2023/09/13 03:52:01;;;;;;;14.98;2.10;;;;;;;;;;5061329;28;20071;-58
2023/09/13 03:54:27;;;;;;;10.43;1.92;;;;;;;;;;5070020;28;20477;-58
2023/09/13 03:56:53;;;;;;;11.60;2.13;;;;;;;;;;5062422;28;20040;-58
2023/09/13 03:59:19;;;;;;;12.60;2.20;;;;;;;;;;5071753;28;20450;-58
2023/09/13 04:01:46;;;;;;;8.43;2.10;;;;;;;;;;5066856;28;20028;-58
2023/09/13 04:04:12;;;;;;;8.55;1.90;;;;;;;;;;5067284;28;20480;-58
2023/09/13 04:06:39;;;;;;;11.30;2.30;;;;;;;;;;5060627;28;20048;-58
2023/09/13 04:09:06;;;;;;;9.32;2.40;;;;;;;;;;5058859;28;20372;-58
2023/09/13 04:11:32;;;;;;;9.45;2.00;;;;;;;;;;5062080;28;20056;-58
2023/09/13 04:14:00;;;;;;;11.55;2.50;;;;;;;;;;5063472;28;20052;-58
2023/09/13 04:16:26;;;;;;;10.82;2.97;;;;;;;;;;5060748;28;20041;-58
2023/09/13 04:18:53;;;;;;;15.52;2.85;;;;;;;;;;5059223;28;20199;-58
2023/09/13 04:21:19;;;;;;;15.80;2.55;;;;;;;;;;5061706;28;20062;-58
2023/09/13 04:23:45;;;;;;;15.07;3.35;;;;;;;;;;5060898;28;20041;-58
2023/09/13 04:26:13;;;;;;;14.18;2.67;;;;;;;;;;5062971;28;20134;-58
2023/09/13 04:28:39;;;;;;;14.95;2.55;;;;;;;;;;5061588;28;20399;-58
2023/09/13 04:31:05;;;;;;;9.98;2.58;;;;;;;;;;5062047;28;20148;-58
2023/09/13 04:33:47;;;;;;;14.68;2.85;;;;;;;;;;5062460;28;20403;-58
2023/09/13 04:36:14;;;;;;;16.33;2.75;;;;;;;;;;5059661;28;20052;-58
2023/09/13 04:38:40;;;;;;;11.80;2.90;;;;;;;;;;5060568;28;20036;-58
2023/09/13 04:41:11;;;;;;;14.85;2.85;;;;;;;;;;5060306;28;20598;-58
2023/09/13 04:43:37;;;;;;;16.70;3.17;;;;;;;;;;5061564;28;20056;-58
2023/09/13 04:46:03;;;;;;;16.10;2.80;;;;;;;;;;5067048;28;20037;-58
2023/09/13 04:48:29;;;;;;;15.80;2.83;;;;;;;;;;5063488;28;20041;-58
2023/09/13 04:50:55;;;;;;;14.85;3.75;;;;;;;;;;5062783;28;20091;-58
2023/09/13 04:53:22;;;;;;;15.43;4.18;;;;;;;;;;5058701;28;20404;-58
2023/09/13 04:55:48;;;;;;;16.52;2.97;;;;;;;;;;5063263;28;20498;-58
2023/09/13 04:58:14;;;;;;;16.60;3.88;;;;;;;;;;5060611;28;20059;-58
2023/09/13 05:00:40;;;;;;;11.88;2.92;;;;;;;;;;5058272;28;20040;-58
2023/09/13 05:03:07;;;;;;;10.60;2.90;;;;;;;;;;5061604;28;20185;-58
2023/09/13 05:05:33;;;;;;;16.17;3.13;;;;;;;;;;5061946;28;20544;-58
2023/09/13 05:07:59;;;;;;;10.68;2.60;;;;;;;;;;5070644;28;20045;-58
2023/09/13 05:10:25;;;;;;;17.20;3.25;;;;;;;;;;5069869;28;20033;-58
2023/09/13 05:12:52;;;;;;;10.45;3.10;;;;;;;;;;5058846;28;20132;-58
2023/09/13 05:15:18;;;;;;;17.98;3.80;;;;;;;;;;5068925;28;20177;-58
2023/09/13 05:17:44;;;;;;;13.73;3.20;;;;;;;;;;5068499;28;20396;-58
2023/09/13 05:20:10;;;;;;;13.45;3.35;;;;;;;;;;5068087;28;20126;-58
2023/09/13 05:22:36;;;;;;;18.27;4.05;;;;;;;;;;5069390;28;20040;-58
2023/09/13 05:25:03;;;;;;;14.70;3.78;;;;;;;;;;5068312;28;20099;-58
2023/09/13 05:27:29;;;;;;;18.73;4.22;;;;;;;;;;5065767;28;20048;-58
2023/09/13 05:29:55;;;;;;;15.50;3.72;;;;;;;;;;5064524;28;20040;-58
2023/09/13 05:32:21;;;;;;;14.63;3.40;;;;;;;;;;5061973;28;20100;-58
2023/09/13 05:34:48;;;;;;;16.25;3.88;;;;;;;;;;5059088;28;20081;-58
2023/09/13 05:37:14;;;;;;;20.08;4.50;;;;;;;;;;5061192;28;20412;-58
2023/09/13 05:39:40;;;;;;;16.83;4.35;;;;;;;;;;5061300;28;20042;-58
2023/09/13 05:42:06;;;;;;;15.02;3.88;;;;;;;;;;5059648;28;20131;-57
2023/09/13 05:44:33;;;;;;;14.45;3.42;;;;;;;;;;5069231;28;20037;-57
2023/09/13 05:46:59;;;;;;;15.88;3.92;;;;;;;;;;5061381;28;20461;-58
2023/09/13 05:49:26;;;;;;;13.00;3.47;;;;;;;;;;5059969;28;20048;-57
2023/09/13 05:51:52;;;;;;;12.50;3.30;;;;;;;;;;5060841;28;20099;-58
2023/09/13 05:54:19;;;;;;;12.68;3.28;;;;;;;;;;5066747;28;20040;-58
2023/09/13 05:56:45;;;;;;;10.10;3.03;;;;;;;;;;5069626;28;20565;-59
2023/09/13 05:59:11;;;;;;;16.48;3.97;;;;;;;;;;5067354;28;20127;-58
2023/09/13 06:01:38;;;;;;;15.30;2.70;;;;;;;;;;5056542;28;20037;-58
2023/09/13 06:04:08;;;;;;;11.80;2.05;;;;;;;;;;5058827;28;20395;-58
2023/09/13 06:06:35;;;;;;;12.55;2.63;;;;;;;;;;5054948;28;20032;-58
2023/09/13 06:09:03;;;;;;;10.75;2.47;;;;;;;;;;5058810;28;20049;-58
2023/09/13 06:11:30;;;;;;;12.38;2.83;;;;;;;;;;5062167;28;20081;-59
2023/09/13 06:13:56;;;;;;;12.60;3.08;;;;;;;;;;5056793;28;20037;-58
2023/09/13 06:16:24;;;;;;;11.88;2.83;;;;;;;;;;5058380;28;20091;-58
2023/09/13 06:18:50;;;;;;;9.02;3.40;;;;;;;;;;5070670;28;20574;-58
2023/09/13 06:21:16;;;;;;;11.60;2.30;;;;;;;;;;5061798;28;20115;-58
2023/09/13 06:23:43;;;;;;;11.50;2.83;;;;;;;;;;5066764;28;20920;-58
2023/09/13 06:26:09;;;;;;;12.77;3.03;;;;;;;;;;5062258;28;20075;-58
2023/09/13 06:28:36;;;;;;;15.77;2.95;;;;;;;;;;5062285;28;20374;-58
2023/09/13 06:31:02;;;;;;;11.93;2.70;;;;;;;;;;5062346;28;20369;-58
2023/09/13 06:33:28;;;;;;;13.30;2.72;;;;;;;;;;5061661;28;20037;-58
2023/09/13 06:35:56;;;;;;;13.63;2.65;;;;;;;;;;5061670;28;20451;-58
2023/09/13 06:38:22;;;;;;;13.00;2.40;;;;;;;;;;5065045;28;20225;-58
2023/09/13 06:40:51;;;;;;;8.63;1.88;;;;;;;;;;5064614;28;20068;-58
2023/09/13 06:43:18;;;;;;;8.32;2.13;;;;;;;;;;5059693;28;20108;-58
2023/09/13 06:45:45;;;;;;;8.48;1.63;;;;;;;;;;5059517;28;20207;-58
2023/09/13 06:48:11;;;;;;;8.02;1.40;;;;;;;;;;5060531;28;20060;-58
2023/09/13 06:50:38;;;;;;;5.55;1.45;;;;;;;;;;5057587;28;20417;-58
2023/09/13 06:53:04;;;;;;;9.20;2.13;;;;;;;;;;5058989;28;20528;-58
2023/09/13 06:55:32;;;;;;;11.13;1.85;;;;;;;;;;5062354;28;20519;-58
2023/09/13 06:57:58;;;;;;;5.78;1.48;;;;;;;;;;5060543;28;20127;-58
2023/09/13 07:00:24;;;;;;;7.57;1.23;;;;;;;;;;5059261;28;20044;-58
2023/09/13 07:02:50;;;;;;;12.75;1.40;;;;;;;;;;5061353;28;20045;-58
2023/09/13 07:05:17;;;;;;;10.45;2.17;;;;;;;;;;5061541;28;20109;-58
2023/09/13 07:07:43;;;;;;;9.48;1.45;;;;;;;;;;5060995;28;20068;-59
2023/09/13 07:10:09;;;;;;;8.07;1.85;;;;;;;;;;5071439;28;20057;-59
2023/09/13 07:12:36;;;;;;;5.90;1.25;;;;;;;;;;5066996;28;20489;-59
2023/09/13 07:15:02;;;;;;;6.50;1.30;;;;;;;;;;5071812;28;20036;-59
2023/09/13 07:17:28;;;;;;;7.10;1.83;;;;;;;;;;5069998;28;20460;-60
2023/09/13 07:19:55;;;;;;;6.90;1.40;;;;;;;;;;5070576;28;20112;-60
2023/09/13 07:22:21;;;;;;;8.40;2.17;;;;;;;;;;5065287;28;20044;-60
2023/09/13 07:24:48;;;;;;;11.05;2.08;;;;;;;;;;5069508;28;20443;-60
2023/09/13 07:27:14;;;;;;;7.90;1.90;;;;;;;;;;5067291;28;20181;-60
2023/09/13 07:29:40;;;;;;;5.55;1.45;;;;;;;;;;5063964;28;20119;-60
2023/09/13 07:32:06;;;;;;;10.45;1.58;;;;;;;;;;5066410;28;20484;-60
2023/09/13 07:34:39;;;;;;;11.80;2.00;;;;;;;;;;5064957;28;20172;-60
2023/09/13 07:37:05;;;;;;;6.80;1.50;;;;;;;;;;5066899;28;20052;-60
2023/09/13 07:39:31;;;;;;;6.43;1.48;;;;;;;;;;5065996;28;20563;-60
2023/09/13 07:41:58;;;;;;;8.65;2.50;;;;;;;;;;5068329;28;20044;-60
2023/09/13 07:44:25;;;;;;;9.95;1.67;;;;;;;;;;5068879;28;20046;-60
2023/09/13 07:46:51;;;;;;;8.07;2.45;;;;;;;;;;5065830;28;20040;-61
2023/09/13 07:49:17;;;;;;;9.75;2.05;;;;;;;;;;5070929;28;20523;-60
2023/09/13 07:51:43;;;;;;;11.65;2.65;;;;;;;;;;5071477;28;20110;-60
2023/09/13 07:54:09;;;;;;;12.90;2.78;;;;;;;;;;5071064;28;20072;-60
2023/09/13 07:56:37;;;;;;;14.55;2.58;;;;;;;;;;5072042;28;20119;-60
2023/09/13 07:59:03;;;;;;;11.77;2.60;;;;;;;;;;5075777;28;20087;-60
2023/09/13 08:01:30;;;;;;;16.67;3.05;;;;;;;;;;5071070;28;20443;-60
2023/09/13 08:03:56;;;;;;;12.77;3.20;;;;;;;;;;5068802;28;20444;-60
2023/09/13 08:06:30;;;;;;;19.85;3.65;;;;;;;;;;5058467;28;20076;-60
2023/09/13 08:08:57;;;;;;;12.63;3.70;;;;;;;;;;5062094;28;20068;-60
2023/09/13 08:11:23;;;;;;;18.25;3.72;;;;;;;;;;5070676;28;20127;-61
2023/09/13 08:13:50;;;;;;;18.63;3.35;;;;;;;;;;5086590;28;20485;-65
2023/09/13 08:16:16;;;;;;;15.10;3.58;;;;;;;;;;5070091;28;20045;-60
2023/09/13 08:18:42;;;;;;;14.15;3.72;;;;;;;;;;5069913;28;20400;-60
2023/09/13 08:21:09;;;;;;;13.15;4.18;;;;;;;;;;5068560;28;20107;-60
2023/09/13 08:23:35;;;;;;;15.15;3.50;;;;;;;;;;5058441;28;20096;-60
2023/09/13 08:26:01;;;;;;;12.82;2.92;;;;;;;;;;5061158;28;20115;-60
2023/09/13 08:28:28;;;;;;;15.40;3.15;;;;;;;;;;5061118;28;20060;-60
2023/09/13 08:30:54;;;;;;;8.70;2.88;;;;;;;;;;5059231;28;20146;-60
2023/09/13 08:33:20;;;;;;;13.82;3.40;;;;;;;;;;5063326;28;20055;-60
2023/09/13 08:35:47;;;;;;;13.35;3.17;;;;;;;;;;5059724;28;20095;-60
2023/09/13 08:38:13;;;;;;;13.75;3.20;;;;;;;;;;5057724;28;20048;-60
2023/09/13 08:40:45;;;;;;;12.20;3.33;;;;;;;;;;5060684;28;20406;-60
2023/09/13 08:43:12;;;;;;;11.25;2.65;;;;;;;;;;5059370;28;20100;-60
2023/09/13 08:45:38;;;;;;;13.38;2.90;;;;;;;;;;5062134;28;20120;-60
2023/09/13 08:48:09;;;;;;;7.72;2.50;;;;;;;;;;5060625;28;20080;-60
2023/09/13 08:50:36;;;;;;;12.85;3.13;;;;;;;;;;5060606;28;20036;-60
2023/09/13 08:53:03;;;;;;;11.45;3.53;;;;;;;;;;5061132;28;20044;-60
2023/09/13 08:55:33;;;;;;;11.10;2.75;;;;;;;;;;5059338;28;20082;-60
2023/09/13 08:58:00;;;;;;;15.82;3.88;;;;;;;;;;5059168;28;20127;-60
2023/09/13 09:00:27;;;;;;;12.88;4.05;;;;;;;;;;5059499;28;20052;-60
2023/09/13 09:02:55;;;;;;;10.10;3.45;;;;;;;;;;5059360;28;20041;-60
2023/09/13 09:05:22;;;;;;;12.63;4.60;;;;;;;;;;5060827;28;20071;-59
2023/09/13 09:07:48;;;;;;;10.30;3.42;;;;;;;;;;5060633;28;20378;-60
2023/09/13 09:10:15;;;;;;;15.98;4.13;;;;;;;;;;5061816;28;20033;-60
2023/09/13 09:12:42;;;;;;;8.65;3.67;;;;;;;;;;5058481;28;20049;-60
2023/09/13 09:15:09;;;;;;;10.60;3.60;;;;;;;;;;5061232;28;21234;-60
2023/09/13 09:17:36;;;;;;;8.57;3.20;;;;;;;;;;5059243;28;20094;-60
2023/09/13 09:20:02;;;;;;;11.40;3.50;;;;;;;;;;5059909;28;20049;-60
2023/09/13 09:22:29;;;;;;;9.93;3.30;;;;;;;;;;5064578;28;20048;-60
2023/09/13 09:24:56;;;;;;;6.82;3.08;;;;;;;;;;5094523;28;20487;-60
2023/09/13 09:27:22;;;;;;;11.55;4.07;;;;;;;;;;5061449;28;20047;-60
2023/09/13 09:29:59;;;;;;;8.15;3.90;;;;;;;;;;5063476;28;20362;-60
2023/09/13 09:32:28;;;;;;;7.18;3.03;;;;;;;;;;5064451;28;20193;-61
2023/09/13 09:34:56;;;;;;;12.07;3.00;;;;;;;;;;5064799;28;20036;-60
2023/09/13 09:37:28;;;;;;;9.38;3.45;;;;;;;;;;5062589;28;20135;-61
2023/09/13 09:39:54;;;;;;;11.63;3.72;;;;;;;;;;5066436;28;20041;-60
2023/09/13 09:42:20;;;;;;;9.38;2.95;;;;;;;;;;5060644;28;20601;-60
2023/09/13 09:44:47;;;;;;;10.02;3.10;;;;;;;;;;5065315;28;20032;-61
2023/09/13 09:47:14;;;;;;;8.05;2.88;;;;;;;;;;5056801;28;20056;-60
2023/09/13 09:49:40;;;;;;;9.23;3.30;;;;;;;;;;5058748;28;20123;-61
2023/09/13 09:52:07;;;;;;;9.35;3.00;;;;;;;;;;5070472;28;20456;-61
2023/09/13 09:54:34;;;;;;;8.35;3.00;;;;;;;;;;5071963;28;20036;-61
2023/09/13 09:57:00;;;;;;;8.18;3.50;;;;;;;;;;5073632;28;20051;-61
2023/09/13 09:59:30;;;;;;;6.97;3.05;;;;;;;;;;5073424;28;20083;-61
2023/09/13 10:02:00;;;;;;;11.25;3.58;;;;;;;;;;5074074;28;20504;-60
2023/09/13 10:04:27;;;;;;;7.88;3.25;;;;;;;;;;5071408;28;20028;-61
2023/09/13 10:06:59;;;;;;;9.80;3.35;;;;;;;;;;5071904;28;20044;-61
2023/09/13 10:09:36;;;;;;;7.15;3.10;;;;;;;;;;5074194;28;20048;-61
2023/09/13 10:12:02;;;;;;;11.88;3.03;;;;;;;;;;5069474;28;20064;-60
2023/09/13 10:14:29;;;;;;;8.98;3.35;;;;;;;;;;5071190;28;20036;-61
2023/09/13 10:16:55;;;;;;;10.85;3.10;;;;;;;;;;5070667;28;20040;-60
2023/09/13 10:19:28;;;;;;;8.68;3.08;;;;;;;;;;5061505;28;20045;-61
2023/09/13 10:21:54;;;;;;;;;;;;;;;;;;5065880;28;20039;-61
2023/09/13 10:24:23;;;;;;;7.93;2.65;;;;;;;;;;5072733;28;19984;-61
2023/09/13 10:26:52;;;;;;;7.88;2.88;;;;;;;;;;5060106;28;20041;-61
2023/09/13 10:29:25;;;;;;;9.32;2.28;;;;;;;;;;5072868;28;20041;-61
2023/09/13 10:31:52;;;;;;;6.53;2.73;;;;;;;;;;5071188;28;20068;-61
2023/09/13 10:34:26;;;;;;;8.15;2.35;;;;;;;;;;5069976;28;20126;-61
2023/09/13 10:37:15;;;;;;;9.40;2.42;;;;;;;;;;5073077;28;20075;-61
2023/09/13 10:39:47;;;;;;;7.45;2.33;;;;;;;;;;5041409;28;20072;-61
2023/09/13 10:42:20;;;;;;;9.03;2.47;;;;;;;;;;5072177;28;20056;-62
2023/09/13 10:44:47;;;;;;;8.60;2.27;;;;;;;;;;5073250;28;20294;-61
2023/09/13 10:47:13;;;;;;;7.45;2.30;;;;;;;;;;5072344;28;20069;-61
2023/09/13 10:49:39;;;;;;;6.95;1.88;;;;;;;;;;5064853;28;20068;-61
2023/09/13 10:52:06;;;;;;;9.55;2.50;;;;;;;;;;5060423;28;20041;-61
2023/09/13 10:54:33;;;;;;;7.30;2.03;;;;;;;;;;5067065;28;20056;-61
2023/09/13 10:56:59;;;;;;;7.68;1.73;;;;;;;;;;5091323;28;20191;-62
2023/09/13 10:59:28;;;;;;;7.32;2.05;;;;;;;;;;5065514;28;20044;-61
2023/09/13 11:01:54;;;;;;;10.45;2.25;;;;;;;;;;5060471;28;20033;-61
2023/09/13 11:04:23;;;;;;;8.73;2.20;;;;;;;;;;5067977;28;20131;-61
2023/09/13 11:06:53;;;;;;;7.25;2.00;;;;;;;;;;5073229;28;20097;-61
2023/09/13 11:09:27;;;;;;;6.63;1.70;;;;;;;;;;5071673;28;20052;-61
2023/09/13 11:11:56;;;;;;;8.30;2.00;;;;;;;;;;5071618;28;20044;-61
2023/09/13 11:14:28;;;;;;;8.68;2.35;;;;;;;;;;5071327;28;20040;-61
2023/09/13 11:16:57;;;;;;;11.98;2.33;;;;;;;;;;5098756;28;20896;-61
2023/09/13 11:19:27;;;;;;;8.52;2.10;;;;;;;;;;5072667;28;20061;-61
2023/09/13 11:21:57;;;;;;;10.40;2.00;;;;;;;;;;5072147;28;20043;-61
2023/09/13 11:24:37;;;;;;;9.15;2.63;;;;;;;;;;5070508;28;20052;-61
2023/09/13 11:27:11;;;;;;;8.85;1.88;;;;;;;;;;5060135;28;20044;-61
2023/09/13 11:29:42;;;;;;;8.38;1.70;;;;;;;;;;5072672;28;20127;-61
2023/09/13 11:32:09;;;;;;;7.72;2.03;;;;;;;;;;5070565;28;20068;-61
2023/09/13 11:34:37;;;;;;;7.53;2.75;;;;;;;;;;5069670;28;20119;-61
2023/09/13 11:37:07;;;;;;;6.20;1.95;;;;;;;;;;5072020;28;20041;-61
2023/09/13 11:39:34;;;;;;;7.20;2.05;;;;;;;;;;5075102;28;20044;-61
2023/09/13 11:42:00;;;;;;;9.48;2.50;;;;;;;;;;5060512;28;20076;-61
2023/09/13 11:44:27;;;;;;;9.02;2.28;;;;;;;;;;5072386;28;20044;-61
2023/09/13 11:46:54;;;;;;;9.82;2.63;;;;;;;;;;5071455;28;20412;-61
2023/09/13 11:49:21;;;;;;;7.65;2.05;;;;;;;;;;5071748;28;20101;-61
2023/09/13 11:51:55;;;;;;;9.15;3.05;;;;;;;;;;5071151;28;20511;-61
2023/09/13 11:54:22;;;;;;;9.20;2.00;;;;;;;;;;5058037;28;20523;-61
2023/09/13 11:56:49;;;;;;;6.82;1.70;;;;;;;;;;5074863;28;20484;-61
2023/09/13 11:59:15;;;;;;;9.00;2.17;;;;;;;;;;5071384;28;20055;-61
2023/09/13 12:01:42;;;;;;;7.47;1.60;;;;;;;;;;5064303;28;20045;-61
2023/09/13 12:04:09;;;;;;;11.57;2.03;;;;;;;;;;5058751;28;20044;-61
2023/09/13 12:06:46;;;;;;;7.93;2.33;;;;;;;;;;5071293;28;20500;-61
2023/09/13 12:09:16;;;;;;;8.45;2.22;;;;;;;;;;5071975;28;20080;-61
2023/09/13 12:11:43;;;;;;;6.75;1.95;;;;;;;;;;5063118;28;20503;-60
2023/09/13 12:14:10;;;;;;;7.55;1.23;;;;;;;;;;5069602;28;20151;-61
2023/09/13 12:16:38;;;;;;;5.63;1.35;;;;;;;;;;5068308;28;20059;-61
2023/09/13 12:19:05;;;;;;;2.72;1.00;;;;;;;;;;5059985;28;20554;-61
2023/09/13 12:21:32;;;;;;;3.75;1.10;;;;;;;;;;5070982;28;20045;-61
2023/09/13 12:23:58;;;;;;;8.80;2.15;;;;;;;;;;5067865;28;20060;-61
2023/09/13 12:26:24;;;;;;;6.68;1.13;;;;;;;;;;5061212;28;20076;-61
2023/09/13 12:28:51;;;;;;;5.85;1.65;;;;;;;;;;5061613;28;20036;-61
2023/09/13 12:31:18;;;;;;;6.15;1.40;;;;;;;;;;5062717;28;20936;-60
2023/09/13 12:33:45;;;;;;;8.95;1.80;;;;;;;;;;5067888;28;20036;-61
2023/09/13 12:36:12;;;;;;;6.45;1.73;;;;;;;;;;5059942;28;20037;-61
2023/09/13 12:38:44;;;;;;;7.78;1.83;;;;;;;;;;5065171;28;20047;-61
2023/09/13 12:41:11;;;;;;;8.90;1.53;;;;;;;;;;5058490;28;20049;-60
2023/09/13 12:43:39;;;;;;;11.50;2.17;;;;;;;;;;5063571;28;20097;-60
2023/09/13 12:46:07;;;;;;;7.93;1.80;;;;;;;;;;5059742;28;20071;-60
2023/09/13 12:48:40;;;;;;;10.25;1.85;;;;;;;;;;5068034;28;20124;-60
2023/09/13 12:51:06;;;;;;;6.65;1.40;;;;;;;;;;5062773;28;20041;-61
2023/09/13 12:53:33;;;;;;;11.25;2.05;;;;;;;;;;5056606;28;20045;-61
2023/09/13 12:55:59;;;;;;;11.60;2.17;;;;;;;;;;5057734;28;20041;-60
2023/09/13 12:58:25;;;;;;;9.65;2.50;;;;;;;;;;5067514;28;20045;-60
2023/09/13 13:00:56;;;;;;;8.05;1.60;;;;;;;;;;5062168;28;20210;-60
2023/09/13 13:03:28;;;;;;;6.95;1.63;;;;;;;;;;5061415;28;20556;-61
2023/09/13 13:05:55;;;;;;;7.68;1.63;;;;;;;;;;5066480;28;20047;-60
2023/09/13 13:08:37;;;;;;;10.25;1.98;;;;;;;;;;5063850;28;20590;-60
2023/09/13 13:11:04;;;;;;;9.05;1.67;;;;;;;;;;5058965;28;20044;-60
2023/09/13 13:13:31;;;;;;;6.35;1.40;;;;;;;;;;5071089;28;20361;-60
2023/09/13 13:15:58;;;;;;;6.03;1.50;;;;;;;;;;5066303;28;20049;-60
2023/09/13 13:18:24;;;;;;;8.25;1.70;;;;;;;;;;5064823;28;20052;-61
2023/09/13 13:20:51;;;;;;;7.93;1.85;;;;;;;;;;5064880;28;20560;-60
2023/09/13 13:23:17;;;;;;;14.15;2.10;;;;;;;;;;5067434;28;20111;-60
2023/09/13 13:25:44;;;;;;;9.13;2.35;;;;;;;;;;5067224;28;20046;-60
2023/09/13 13:28:10;;;;;;;9.23;1.60;;;;;;;;;;5067727;28;20491;-60
2023/09/13 13:30:38;;;;;;;15.15;2.75;;;;;;;;;;5068329;28;20115;-60
2023/09/13 13:33:06;;;;;;;9.45;1.70;;;;;;;;;;5063380;28;20045;-60
2023/09/13 13:35:33;;;;;;;8.38;2.30;;;;;;;;;;5064629;28;20186;-60
2023/09/13 13:37:59;;;;;;;8.65;2.00;;;;;;;;;;5069779;28;20488;-60
2023/09/13 13:40:26;;;;;;;9.88;2.10;;;;;;;;;;5070179;28;20036;-60
2023/09/13 13:42:52;;;;;;;7.82;2.40;;;;;;;;;;5069879;28;20086;-60
2023/09/13 13:45:18;;;;;;;10.45;2.30;;;;;;;;;;5069880;28;20473;-60
2023/09/13 13:47:46;;;;;;;9.13;2.20;;;;;;;;;;5069864;28;20053;-60
2023/09/13 13:50:12;;;;;;;8.77;2.25;;;;;;;;;;5069832;28;20072;-60
2023/09/13 13:52:39;;;;;;;12.80;2.33;;;;;;;;;;5069117;28;20364;-60
2023/09/13 13:55:05;;;;;;;16.83;2.65;;;;;;;;;;5070357;28;20411;-60
2023/09/13 13:57:42;;;;;;;13.43;2.55;;;;;;;;;;5070839;28;20047;-60
2023/09/13 14:00:10;;;;;;;11.52;2.35;;;;;;;;;;5068485;28;20040;-60
2023/09/13 14:02:36;;;;;;;13.90;2.08;;;;;;;;;;5068307;28;20091;-60
2023/09/13 14:05:04;;;;;;;9.25;2.17;;;;;;;;;;5066954;28;20052;-60
2023/09/13 14:07:30;;;;;;;8.45;2.08;;;;;;;;;;5068023;28;20058;-60
2023/09/13 14:09:56;;;;;;;9.02;1.80;;;;;;;;;;5068792;28;20040;-60
2023/09/13 14:12:23;;;;;;;10.25;2.10;;;;;;;;;;5070407;28;20420;-60
2023/09/13 14:14:49;;;;;;;9.52;2.60;;;;;;;;;;5069973;28;20051;-60
2023/09/13 14:17:15;;;;;;;9.48;2.08;;;;;;;;;;5069679;28;20464;-61
2023/09/13 14:19:41;;;;;;;8.55;2.05;;;;;;;;;;5068572;28;20109;-60
2023/09/13 14:22:08;;;;;;;6.22;2.17;;;;;;;;;;5063757;28;20043;-61
2023/09/13 14:24:34;;;;;;;9.43;2.40;;;;;;;;;;5066964;28;20443;-60
2023/09/13 14:27:00;;;;;;;8.80;1.90;;;;;;;;;;5064341;28;20040;-60
2023/09/13 14:29:26;;;;;;;12.05;2.33;;;;;;;;;;5065677;28;20041;-60
2023/09/13 14:32:00;;;;;;;9.88;1.95;;;;;;;;;;5063823;28;20037;-60
2023/09/13 14:34:26;;;;;;;7.88;2.35;;;;;;;;;;5063914;28;20048;-60
2023/09/13 14:36:52;;;;;;;11.40;2.35;;;;;;;;;;5071642;28;20071;-60